Big Eddie — WDG2850 — position and weather

sailwx.info

Track history (hours):
 
Tides and Currents Weather Stations Pressure Air Temp Water Temp Dewpoint Dewpoint Depression Visibility Wind Speed Wind Dir Waves Ship Positions

Big Eddie

Owner: Crosby Marine Transportaion LLC, Golden Meadow, LA. More information available from US FCC via Universal Licensing System and Coast Guard Vessel Documentation Center.

Last reported at 2018-Jan-07 07:02 UTC. Time now 2018-Jan-23 20:17 UTC.
Position N 29°34' W 090°31'.
Warning: this ship's position is 16 days out of date.

Length 22 m; draft 4 m.

Type: Towing. MMSI: 367519920.

Date/timePositionNaut miles runAvg speedWind from/ knotsBaromVisibWave heightAir tempDewpointWater temp
2018-Jan-07 07:02N 29°34' W 090°31'1 7.6
2018-Jan-07 06:56N 29°34' W 090°32'3 7.5
2018-Jan-07 06:30N 29°35' W 090°36'4 7.1
2018-Jan-07 06:01N 29°36' W 090°39'3 5.5
2018-Jan-07 05:31N 29°36' W 090°43'3 6.2
2018-Jan-07 05:01N 29°33' W 090°42'4 7.0
2018-Jan-07 04:30N 29°29' W 090°43'5 0.5
2018-Jan-06 18:22N 29°25' W 090°44'2 4.7
2018-Jan-06 18:00N 29°26' W 090°43'2 4.7
2018-Jan-06 17:30N 29°29' W 090°43'2 4.7
2018-Jan-06 17:01N 29°31' W 090°43'2 4.6
2018-Jan-06 16:31N 29°33' W 090°42'1 2.3
2018-Jan-06 16:01N 29°34' W 090°44'2 4.1
2018-Jan-06 15:31N 29°33' W 090°46'2 4.8
2018-Jan-06 15:01N 29°32' W 090°48'3 5.3
2018-Jan-06 14:26N 29°32' W 090°52'2 5.2
2018-Jan-06 14:00N 29°33' W 090°54'3 5.5
2018-Jan-06 13:31N 29°34' W 090°57'3 5.3
2018-Jan-06 12:58N 29°37' W 090°59'8 0.2
2018-Jan-05 02:06N 29°32' W 090°52'1 5.8
2018-Jan-05 01:58N 29°32' W 090°51'2 4.8
2018-Jan-05 01:29N 29°32' W 090°48'2 5.0
2018-Jan-05 01:01N 29°33' W 090°45'2 5.0
2018-Jan-05 00:31N 29°34' W 090°43'0 0.6
2018-Jan-05 00:01N 29°34' W 090°43'0 0.0
2018-Jan-04 23:30N 29°34' W 090°43'0 0.1
2018-Jan-04 23:00N 29°35' W 090°43'2 4.4
2018-Jan-04 22:30N 29°37' W 090°42'1 1.3
2018-Jan-04 22:00N 29°37' W 090°42'3 5.4
2018-Jan-04 21:31N 29°36' W 090°39'3 5.1
2018-Jan-04 20:58N 29°35' W 090°36'2 5.2
2018-Jan-04 20:30N 29°34' W 090°33'  
Track history (hours):
 
Tides and Currents Weather Stations Pressure Air Temp Water Temp Dewpoint Dewpoint Depression Visibility Wind Speed Wind Dir Waves Ship Positions

Big Eddie

Owner: Crosby Marine Transportaion LLC, Golden Meadow, LA. More information available from US FCC via Universal Licensing System and Coast Guard Vessel Documentation Center.

Last reported at 2018-Jan-07 07:02 UTC. Time now 2018-Jan-23 20:17 UTC.
Position N 29°34' W 090°31'.
Warning: this ship's position is 16 days out of date.

Length 22 m; draft 4 m.

Type: Towing. MMSI: 367519920.

Date/timePositionNaut miles runAvg speedWind from/ knotsBaromVisibWave heightAir tempDewpointWater temp
2018-Jan-07 07:02N 29°34' W 090°31'1 7.6
2018-Jan-07 06:56N 29°34' W 090°32'3 7.5
2018-Jan-07 06:30N 29°35' W 090°36'4 7.1
2018-Jan-07 06:01N 29°36' W 090°39'3 5.5
2018-Jan-07 05:31N 29°36' W 090°43'3 6.2
2018-Jan-07 05:01N 29°33' W 090°42'4 7.0
2018-Jan-07 04:30N 29°29' W 090°43'5 0.5
2018-Jan-06 18:22N 29°25' W 090°44'2 4.7
2018-Jan-06 18:00N 29°26' W 090°43'2 4.7
2018-Jan-06 17:30N 29°29' W 090°43'2 4.7
2018-Jan-06 17:01N 29°31' W 090°43'2 4.6
2018-Jan-06 16:31N 29°33' W 090°42'1 2.3
2018-Jan-06 16:01N 29°34' W 090°44'2 4.1
2018-Jan-06 15:31N 29°33' W 090°46'2 4.8
2018-Jan-06 15:01N 29°32' W 090°48'3 5.3
2018-Jan-06 14:26N 29°32' W 090°52'2 5.2
2018-Jan-06 14:00N 29°33' W 090°54'3 5.5
2018-Jan-06 13:31N 29°34' W 090°57'3 5.3
2018-Jan-06 12:58N 29°37' W 090°59'8 0.2
2018-Jan-05 02:06N 29°32' W 090°52'1 5.8
2018-Jan-05 01:58N 29°32' W 090°51'2 4.8
2018-Jan-05 01:29N 29°32' W 090°48'2 5.0
2018-Jan-05 01:01N 29°33' W 090°45'2 5.0
2018-Jan-05 00:31N 29°34' W 090°43'0 0.6
2018-Jan-05 00:01N 29°34' W 090°43'0 0.0
2018-Jan-04 23:30N 29°34' W 090°43'0 0.1
2018-Jan-04 23:00N 29°35' W 090°43'2 4.4
2018-Jan-04 22:30N 29°37' W 090°42'1 1.3
2018-Jan-04 22:00N 29°37' W 090°42'3 5.4
2018-Jan-04 21:31N 29°36' W 090°39'3 5.1
2018-Jan-04 20:58N 29°35' W 090°36'2 5.2
2018-Jan-04 20:30N 29°34' W 090°33'  

Dump ship's entire track history